createdAt,value
2023-04-15T00:00:59.496Z,5.07
2023-04-15T00:03:26.447Z,5.28
2023-04-15T00:05:53.558Z,5.53
2023-04-15T00:08:20.476Z,5.20
2023-04-15T00:10:47.133Z,5.32
2023-04-15T00:13:13.906Z,5.38
2023-04-15T00:15:41.000Z,4.93
2023-04-15T00:18:08.242Z,4.63
2023-04-15T00:20:35.824Z,4.63
2023-04-15T00:23:03.786Z,4.93
2023-04-15T00:25:30.416Z,4.50
2023-04-15T00:27:57.008Z,4.78
2023-04-15T00:30:23.983Z,4.35
2023-04-15T00:32:50.893Z,5.03
2023-04-15T00:35:18.246Z,4.63
2023-04-15T00:37:46.376Z,4.55
2023-04-15T00:40:13.927Z,4.60
2023-04-15T00:42:41.061Z,4.25
2023-04-15T00:45:08.890Z,4.75
2023-04-15T00:47:37.930Z,4.57
2023-04-15T00:50:05.133Z,4.70
2023-04-15T00:52:32.533Z,5.00
2023-04-15T00:54:59.878Z,5.13
2023-04-15T00:57:28.433Z,4.70
2023-04-15T00:59:56.795Z,5.28
2023-04-15T01:02:25.186Z,5.20
2023-04-15T01:04:52.349Z,4.53
2023-04-15T01:07:19.397Z,4.70
2023-04-15T01:09:46.078Z,5.30
2023-04-15T01:12:15.454Z,5.25
2023-04-15T01:14:42.458Z,5.38
2023-04-15T01:17:09.128Z,4.70
2023-04-15T01:19:39.526Z,4.93
2023-04-15T01:22:06.290Z,5.50
2023-04-15T01:24:33.992Z,4.85
2023-04-15T01:27:00.617Z,5.78
2023-04-15T01:29:27.820Z,5.43
2023-04-15T01:31:55.997Z,6.18
2023-04-15T01:34:23.263Z,5.10
2023-04-15T01:36:50.054Z,5.55
2023-04-15T01:39:16.701Z,5.57
2023-04-15T01:41:43.371Z,5.32
2023-04-15T01:44:10.142Z,5.50
2023-04-15T01:46:36.988Z,5.60
2023-04-15T01:49:03.984Z,5.53
2023-04-15T01:51:30.658Z,5.22
2023-04-15T01:53:57.259Z,5.40
2023-04-15T01:56:24.557Z,5.93
2023-04-15T01:58:51.681Z,5.40
2023-04-15T02:01:19.676Z,5.70
2023-04-15T02:03:47.666Z,5.50
2023-04-15T02:06:14.703Z,5.32
2023-04-15T02:08:41.516Z,5.20
2023-04-15T02:11:08.381Z,5.28
2023-04-15T02:13:36.307Z,4.90
2023-04-15T02:16:03.578Z,5.85
2023-04-15T02:18:30.495Z,4.72
2023-04-15T02:20:58.370Z,5.30
2023-04-15T02:23:25.412Z,5.70
2023-04-15T02:25:53.279Z,5.22
2023-04-15T02:28:21.010Z,5.50
2023-04-15T02:30:50.909Z,5.53
2023-04-15T02:33:17.957Z,5.57
2023-04-15T02:35:45.380Z,5.70
2023-04-15T02:38:12.428Z,5.70
2023-04-15T02:40:39.221Z,5.22
2023-04-15T02:43:07.016Z,5.45
2023-04-15T02:45:34.044Z,5.32
2023-04-15T02:48:06.081Z,5.38
2023-04-15T02:50:33.249Z,4.97
2023-04-15T02:53:01.574Z,5.00
2023-04-15T02:55:29.107Z,5.20
2023-04-15T02:57:56.194Z,5.90
2023-04-15T03:00:25.180Z,6.25
2023-04-15T03:02:56.341Z,5.80
2023-04-15T03:05:26.177Z,4.80
2023-04-15T03:07:53.544Z,5.18
2023-04-15T03:10:20.890Z,5.43
2023-04-15T03:12:48.271Z,5.25
2023-04-15T03:15:15.658Z,5.25
2023-04-15T03:17:52.645Z,5.18
2023-04-15T03:20:19.874Z,5.63
2023-04-15T03:22:46.647Z,4.97
2023-04-15T03:25:13.287Z,5.80
2023-04-15T03:27:41.471Z,5.57
2023-04-15T03:30:08.975Z,5.70
2023-04-15T03:32:35.697Z,5.32
2023-04-15T03:35:02.391Z,5.32
2023-04-15T03:37:29.068Z,5.40
2023-04-15T03:39:55.908Z,5.53
2023-04-15T03:42:22.598Z,5.60
2023-04-15T03:44:49.496Z,5.60
2023-04-15T03:47:16.348Z,5.85
2023-04-15T03:49:42.931Z,5.25
2023-04-15T03:52:09.557Z,5.30
2023-04-15T03:54:36.327Z,6.05
2023-04-15T03:57:03.391Z,5.35
2023-04-15T03:59:30.041Z,5.35
2023-04-15T04:01:57.004Z,5.82
2023-04-15T04:04:23.840Z,5.93
2023-04-15T04:06:50.441Z,6.00
2023-04-15T04:09:17.059Z,5.97
2023-04-15T04:11:45.562Z,6.13
2023-04-15T04:14:12.120Z,5.50
2023-04-15T04:16:38.753Z,5.32
2023-04-15T04:19:05.521Z,5.22
2023-04-15T04:21:34.015Z,5.95
2023-04-15T04:24:00.642Z,5.25
2023-04-15T04:26:27.485Z,5.57
2023-04-15T04:28:54.156Z,5.10
2023-04-15T04:31:21.112Z,5.88
2023-04-15T04:33:47.806Z,5.40
2023-04-15T04:36:14.497Z,5.85
2023-04-15T04:38:41.371Z,5.43
2023-04-15T04:41:08.028Z,4.90
2023-04-15T04:43:34.703Z,5.13
2023-04-15T04:46:01.301Z,5.07
2023-04-15T04:48:27.905Z,5.32
2023-04-15T04:50:54.861Z,5.20
2023-04-15T04:53:21.490Z,5.38
2023-04-15T04:55:48.069Z,5.20
2023-04-15T04:58:14.893Z,5.38
2023-04-15T05:00:42.941Z,5.32
2023-04-15T05:03:09.945Z,5.28
2023-04-15T05:05:39.344Z,5.63
2023-04-15T05:08:06.013Z,5.03
2023-04-15T05:10:32.653Z,5.35
2023-04-15T05:12:59.404Z,6.13
2023-04-15T05:15:26.154Z,6.10
2023-04-15T05:17:53.018Z,5.82
2023-04-15T05:20:19.868Z,6.68
2023-04-15T05:22:46.580Z,6.25
2023-04-15T05:25:13.602Z,6.78
2023-04-15T05:27:40.456Z,5.88
2023-04-15T05:30:07.659Z,6.55
2023-04-15T05:32:34.454Z,6.13
2023-04-15T05:35:02.028Z,6.55
2023-04-15T05:37:28.755Z,5.88
2023-04-15T05:39:55.602Z,6.07
2023-04-15T05:42:22.351Z,6.18
2023-04-15T05:44:49.082Z,6.18
2023-04-15T05:47:15.923Z,5.97
2023-04-15T05:49:42.476Z,6.00
2023-04-15T05:52:09.159Z,5.72
2023-04-15T05:54:36.547Z,6.10
2023-04-15T05:57:04.659Z,6.50
2023-04-15T05:59:31.642Z,5.22
2023-04-15T06:01:58.456Z,6.40
2023-04-15T06:04:25.326Z,6.55
2023-04-15T06:06:53.161Z,6.47
2023-04-15T06:09:20.138Z,6.88
2023-04-15T06:11:47.068Z,7.10
2023-04-15T06:14:13.755Z,7.65
2023-04-15T06:16:40.392Z,6.70
2023-04-15T06:19:07.007Z,6.63
2023-04-15T06:21:33.695Z,6.45
2023-04-15T06:24:03.765Z,6.72
2023-04-15T06:26:31.159Z,7.18
2023-04-15T06:28:57.901Z,6.38
2023-04-15T06:31:24.604Z,6.70
2023-04-15T06:33:51.266Z,6.55
2023-04-15T06:36:17.924Z,7.00
2023-04-15T06:38:44.515Z,7.13
2023-04-15T06:41:11.165Z,6.70
2023-04-15T06:43:37.795Z,7.18
2023-04-15T06:46:04.624Z,7.25
2023-04-15T06:48:31.377Z,6.70
2023-04-15T06:50:58.714Z,6.45
2023-04-15T06:53:27.978Z,6.60
2023-04-15T06:55:54.770Z,6.85
2023-04-15T06:58:21.755Z,6.97
2023-04-15T07:00:49.044Z,8.00
2023-04-15T07:03:15.880Z,8.18
2023-04-15T07:05:42.692Z,7.90
2023-04-15T07:08:09.391Z,7.72
2023-04-15T07:10:36.946Z,7.80
2023-04-15T07:13:05.705Z,7.32
2023-04-15T07:15:32.334Z,7.38
2023-04-15T07:17:58.974Z,7.65
2023-04-15T07:20:25.930Z,7.82
2023-04-15T07:22:53.009Z,7.47
2023-04-15T07:25:19.683Z,7.25
2023-04-15T07:27:47.603Z,7.93
2023-04-15T07:30:14.748Z,8.20
2023-04-15T07:32:42.882Z,8.70
2023-04-15T07:35:09.780Z,8.30
2023-04-15T07:37:36.519Z,8.20
2023-04-15T07:40:07.137Z,7.55
2023-04-15T07:42:34.522Z,8.23
2023-04-15T07:45:01.193Z,8.38
2023-04-15T07:47:27.770Z,8.50
2023-04-15T07:49:54.534Z,7.78
2023-04-15T07:52:21.498Z,8.50
2023-04-15T07:54:48.294Z,8.02
2023-04-15T07:57:15.183Z,7.90
2023-04-15T07:59:41.861Z,7.35
2023-04-15T08:02:08.873Z,7.40
2023-04-15T08:04:35.861Z,7.35
2023-04-15T08:07:03.717Z,7.60
2023-04-15T08:09:30.575Z,6.97
2023-04-15T08:11:57.524Z,7.05
2023-04-15T08:14:24.761Z,7.10
2023-04-15T08:16:54.387Z,6.50
2023-04-15T08:19:21.394Z,6.82
2023-04-15T08:21:48.067Z,6.32
2023-04-15T08:24:15.539Z,6.85
2023-04-15T08:26:42.167Z,7.00
2023-04-15T08:29:09.198Z,6.38
2023-04-15T08:31:35.919Z,6.45
2023-04-15T08:34:02.739Z,5.70
2023-04-15T08:36:29.584Z,5.35
2023-04-15T08:38:58.637Z,5.38
2023-04-15T08:41:26.397Z,5.30
2023-04-15T08:44:03.537Z,5.22
2023-04-15T08:46:32.172Z,4.50
2023-04-15T08:48:59.014Z,5.00
2023-04-15T08:51:26.399Z,4.72
2023-04-15T08:53:53.294Z,4.32
2023-04-15T08:56:28.057Z,4.68
2023-04-15T08:58:55.191Z,4.50
2023-04-15T09:01:22.694Z,4.93
2023-04-15T09:03:50.737Z,4.15
2023-04-15T09:06:18.011Z,4.15
2023-04-15T09:08:44.919Z,4.68
2023-04-15T09:11:12.257Z,4.47
2023-04-15T09:13:39.391Z,4.47
2023-04-15T09:16:06.894Z,4.20
2023-04-15T09:18:35.568Z,4.07
2023-04-15T09:21:11.343Z,4.80
2023-04-15T09:23:41.860Z,4.43
2023-04-15T09:26:08.863Z,4.32
2023-04-15T09:28:42.566Z,4.50
2023-04-15T09:31:10.600Z,4.53
2023-04-15T09:33:55.990Z,3.80
2023-04-15T09:36:23.107Z,4.50
2023-04-15T09:38:59.223Z,4.30
2023-04-15T09:41:26.791Z,4.28
2023-04-15T09:43:53.576Z,4.30
2023-04-15T09:46:20.427Z,4.50
2023-04-15T09:48:47.135Z,4.00
2023-04-15T09:51:14.102Z,4.22
2023-04-15T09:53:40.850Z,3.60
2023-04-15T09:56:09.447Z,4.97
2023-04-15T09:58:38.644Z,4.88
2023-04-15T10:01:08.943Z,3.83
2023-04-15T10:03:39.403Z,4.30
2023-04-15T10:06:06.229Z,3.70
2023-04-15T10:08:34.793Z,3.90
2023-04-15T10:11:02.852Z,3.60
2023-04-15T10:13:34.941Z,3.95
2023-04-15T10:16:14.216Z,4.32
2023-04-15T10:18:51.497Z,4.00
2023-04-15T10:21:19.322Z,4.20
2023-04-15T10:23:46.721Z,3.97
2023-04-15T10:26:14.814Z,4.18
2023-04-15T10:28:42.071Z,4.35
2023-04-15T10:31:11.939Z,4.15
2023-04-15T10:33:39.892Z,4.43
2023-04-15T10:36:07.784Z,3.50
2023-04-15T10:38:45.754Z,3.95
2023-04-15T10:41:21.613Z,3.30
2023-04-15T10:43:49.610Z,3.40
2023-04-15T10:46:21.997Z,3.55
2023-04-15T10:48:53.732Z,3.42
2023-04-15T10:51:31.668Z,2.97
2023-04-15T10:54:01.530Z,2.67
2023-04-15T10:56:30.194Z,3.00
2023-04-15T10:58:59.373Z,2.80
2023-04-15T11:01:56.779Z,3.10
2023-04-15T11:04:51.817Z,2.95
2023-04-15T11:07:47.132Z,2.83
2023-04-15T11:10:14.096Z,3.00
2023-04-15T11:12:41.774Z,2.63
2023-04-15T11:15:30.935Z,2.55
2023-04-15T11:18:18.921Z,2.67
2023-04-15T11:20:48.164Z,2.83
2023-04-15T11:23:16.906Z,2.30
2023-04-15T11:25:44.314Z,1.90
2023-04-15T11:28:12.497Z,2.08
2023-04-15T11:30:40.292Z,1.90
2023-04-15T11:33:12.349Z,2.10
2023-04-15T11:35:40.942Z,2.40
2023-04-15T11:38:13.758Z,2.17
2023-04-15T11:40:42.111Z,1.80
2023-04-15T11:43:11.737Z,2.35
2023-04-15T11:45:56.724Z,1.90
2023-04-15T11:48:31.627Z,1.83
2023-04-15T11:51:01.283Z,1.70
2023-04-15T11:53:42.435Z,1.60
2023-04-15T11:56:11.530Z,1.52
2023-04-15T11:58:39.060Z,1.73
2023-04-15T12:01:07.120Z,2.00
2023-04-15T12:03:45.724Z,2.22
2023-04-15T12:06:19.096Z,2.40
2023-04-15T12:08:49.871Z,2.08
2023-04-15T12:11:17.289Z,2.00
2023-04-15T12:14:04.426Z,2.20
2023-04-15T12:16:34.589Z,2.22
2023-04-15T12:19:06.349Z,2.10
2023-04-15T12:21:38.682Z,2.00
2023-04-15T12:24:08.217Z,2.20
2023-04-15T12:26:36.873Z,2.40
2023-04-15T12:29:11.494Z,2.60
2023-04-15T12:31:51.285Z,2.50
2023-04-15T12:34:19.971Z,2.60
2023-04-15T12:36:46.880Z,2.50
2023-04-15T12:39:13.662Z,2.60
2023-04-15T12:41:40.232Z,2.80
2023-04-15T12:44:07.039Z,2.88
2023-04-15T12:46:33.758Z,2.63
2023-04-15T12:49:00.501Z,2.45
2023-04-15T12:51:27.732Z,1.98
2023-04-15T12:53:54.480Z,2.40
2023-04-15T12:56:21.241Z,2.60
2023-04-15T12:58:47.938Z,2.53
2023-04-15T13:01:14.665Z,2.67
2023-04-15T13:03:41.415Z,3.00
2023-04-15T13:06:08.370Z,2.60
2023-04-15T13:08:36.938Z,2.75
2023-04-15T13:11:07.206Z,2.80
2023-04-15T13:13:33.957Z,2.85
2023-04-15T13:16:00.909Z,3.15
2023-04-15T13:18:27.919Z,3.17
2023-04-15T13:20:56.075Z,3.25
2023-04-15T13:23:22.886Z,3.17
2023-04-15T13:25:49.574Z,3.15
2023-04-15T13:28:16.308Z,3.38
2023-04-15T13:30:44.005Z,3.60
2023-04-15T13:33:11.259Z,4.00
2023-04-15T13:35:38.142Z,2.88
2023-04-15T13:38:04.822Z,2.83
2023-04-15T13:40:31.450Z,2.17
2023-04-15T13:42:58.531Z,2.33
2023-04-15T13:45:25.268Z,1.90
2023-04-15T13:47:53.337Z,2.00
2023-04-15T13:50:20.200Z,2.10
2023-04-15T13:52:47.058Z,1.40
2023-04-15T13:55:20.536Z,1.20
2023-04-15T13:57:48.071Z,1.20
2023-04-15T14:00:15.355Z,1.27
2023-04-15T14:02:42.511Z,1.15
2023-04-15T14:05:10.319Z,0.88
2023-04-15T14:07:37.302Z,0.95
2023-04-15T14:10:04.641Z,0.90
2023-04-15T14:12:31.309Z,0.98
2023-04-15T14:14:58.077Z,1.13
2023-04-15T14:17:24.715Z,1.08
2023-04-15T14:19:51.608Z,0.95
2023-04-15T14:22:18.860Z,1.10
2023-04-15T14:24:45.782Z,1.13
2023-04-15T14:27:12.549Z,1.02
2023-04-15T14:29:39.367Z,1.75
2023-04-15T14:32:12.090Z,4.03
2023-04-15T14:34:39.949Z,2.40
2023-04-15T14:37:06.985Z,2.10
2023-04-15T14:39:33.674Z,2.10
2023-04-15T14:42:00.333Z,1.60
2023-04-15T14:44:27.076Z,1.88
2023-04-15T14:46:54.609Z,2.00
2023-04-15T14:49:21.848Z,2.15
2023-04-15T14:51:48.783Z,1.95
2023-04-15T14:54:16.242Z,2.13
2023-04-15T14:56:43.127Z,2.00
2023-04-15T14:59:09.912Z,2.17
2023-04-15T15:01:38.965Z,1.90
2023-04-15T15:04:06.276Z,1.60
2023-04-15T15:06:32.979Z,1.60
2023-04-15T15:08:59.708Z,1.52
2023-04-15T15:11:27.060Z,1.60
2023-04-15T15:13:53.730Z,1.40
2023-04-15T15:16:20.683Z,1.50
2023-04-15T15:18:47.491Z,1.40
2023-04-15T15:21:14.326Z,1.45
2023-04-15T15:23:41.052Z,1.70
2023-04-15T15:26:07.870Z,1.60
2023-04-15T15:28:34.924Z,1.30
2023-04-15T15:31:01.841Z,1.75
2023-04-15T15:33:30.136Z,1.50
2023-04-15T15:35:58.258Z,1.90
2023-04-15T15:38:25.087Z,1.70
2023-04-15T15:40:52.091Z,1.40
2023-04-15T15:43:18.775Z,1.70
2023-04-15T15:45:45.665Z,1.60
2023-04-15T15:48:12.407Z,1.63
2023-04-15T15:50:39.359Z,1.75
2023-04-15T15:53:06.077Z,1.50
2023-04-15T15:55:33.051Z,2.67
2023-04-15T15:57:59.757Z,1.63
2023-04-15T16:00:26.606Z,1.60
2023-04-15T16:03:06.643Z,1.23
2023-04-15T16:05:36.429Z,1.50
2023-04-15T16:08:03.120Z,2.00
2023-04-15T16:10:29.742Z,2.17
2023-04-15T16:12:56.643Z,1.70
2023-04-15T16:15:25.180Z,1.70
2023-04-15T16:17:52.206Z,1.27
2023-04-15T16:20:18.925Z,1.60
2023-04-15T16:22:45.876Z,1.63
2023-04-15T16:25:12.502Z,2.17
2023-04-15T16:30:09.662Z,1.90
2023-04-15T16:32:36.764Z,1.65
2023-04-15T16:35:03.813Z,1.80
2023-04-15T16:37:32.899Z,1.80
2023-04-15T16:39:59.519Z,2.00
2023-04-15T16:42:26.234Z,1.58
2023-04-15T16:44:53.047Z,1.50
2023-04-15T16:47:19.670Z,1.70
2023-04-15T16:49:46.356Z,1.80
2023-04-15T16:52:13.330Z,1.67
2023-04-15T16:54:41.519Z,1.98
2023-04-15T16:57:08.640Z,2.13
2023-04-15T16:59:35.300Z,2.20
2023-04-15T17:02:02.025Z,2.20
2023-04-15T17:04:29.076Z,2.00
2023-04-15T17:06:55.914Z,2.00
2023-04-15T17:09:22.591Z,1.80
2023-04-15T17:11:49.454Z,1.90
2023-04-15T17:14:16.168Z,1.55
2023-04-15T17:16:43.214Z,1.83
2023-04-15T17:19:09.890Z,1.70
2023-04-15T17:21:36.662Z,2.03
2023-04-15T17:24:03.515Z,1.90
2023-04-15T17:26:31.737Z,1.90
2023-04-15T17:28:58.392Z,1.90
2023-04-15T17:31:25.274Z,2.13
2023-04-15T17:34:02.750Z,2.30
2023-04-15T17:36:36.472Z,2.33
2023-04-15T17:39:03.693Z,2.58
2023-04-15T17:41:30.477Z,2.88
2023-04-15T17:43:57.198Z,2.70
2023-04-15T17:46:23.978Z,2.90
2023-04-15T17:48:50.813Z,2.60
2023-04-15T17:51:17.633Z,2.55
2023-04-15T17:53:44.426Z,2.30
2023-04-15T17:56:11.183Z,1.77
2023-04-15T17:58:39.188Z,1.73
2023-04-15T18:01:06.275Z,1.67
2023-04-15T18:03:33.279Z,1.80
2023-04-15T18:06:01.224Z,1.88
2023-04-15T18:08:29.068Z,1.80
2023-04-15T18:10:56.371Z,1.75
2023-04-15T18:13:23.559Z,1.77
2023-04-15T18:15:51.352Z,1.92
2023-04-15T18:18:18.237Z,2.28
2023-04-15T18:20:44.946Z,2.25
2023-04-15T18:23:11.697Z,2.70
2023-04-15T18:25:38.392Z,1.75
2023-04-15T18:28:08.578Z,2.17
2023-04-15T18:30:35.436Z,2.00
2023-04-15T18:33:02.363Z,2.20
2023-04-15T18:35:32.222Z,2.05
2023-04-15T18:37:59.023Z,2.13
2023-04-15T18:40:25.881Z,2.05
2023-04-15T18:42:52.726Z,1.88
2023-04-15T18:45:19.408Z,2.10
2023-04-15T18:47:46.207Z,2.00
2023-04-15T18:50:13.186Z,2.10
2023-04-15T18:52:39.922Z,2.00
2023-04-15T18:55:07.481Z,1.77
2023-04-15T18:57:35.174Z,2.00
2023-04-15T19:00:03.596Z,2.45
2023-04-15T19:02:30.604Z,2.70
2023-04-15T19:04:57.480Z,2.72
2023-04-15T19:07:24.748Z,2.92
2023-04-15T19:09:51.585Z,2.60
2023-04-15T19:12:18.284Z,2.83
2023-04-15T19:14:44.933Z,3.17
2023-04-15T19:17:11.647Z,3.00
2023-04-15T19:19:38.770Z,3.50
2023-04-15T19:22:05.948Z,2.83
2023-04-15T19:24:33.252Z,3.13
2023-04-15T19:27:01.594Z,2.97
2023-04-15T19:29:28.688Z,2.72
2023-04-15T19:31:55.908Z,2.40
2023-04-15T19:34:22.689Z,2.67
2023-04-15T19:36:49.342Z,3.17
2023-04-15T19:39:16.358Z,3.13
2023-04-15T19:41:44.134Z,5.40
2023-04-15T19:44:12.964Z,3.20
2023-04-15T19:46:44.775Z,3.22
2023-04-15T19:49:11.658Z,3.00
2023-04-15T19:51:38.355Z,3.15
2023-04-15T19:54:04.962Z,3.67
2023-04-15T19:56:34.171Z,3.25
2023-04-15T19:59:01.929Z,3.70
2023-04-15T20:01:28.832Z,3.00
2023-04-15T20:03:55.768Z,2.75
2023-04-15T20:06:22.719Z,2.15
2023-04-15T20:08:49.669Z,2.20
2023-04-15T20:11:16.517Z,2.60
2023-04-15T20:13:43.244Z,2.72
2023-04-15T20:16:11.541Z,2.67
2023-04-15T20:18:38.321Z,2.47
2023-04-15T20:21:05.474Z,2.70
2023-04-15T20:23:32.290Z,3.38
2023-04-15T20:25:58.990Z,3.17
2023-04-15T20:28:27.329Z,2.50
2023-04-15T20:30:54.087Z,2.78
2023-04-15T20:33:22.173Z,2.90
2023-04-15T20:35:48.746Z,2.60
2023-04-15T20:38:16.270Z,2.42
2023-04-15T20:40:43.616Z,3.00
2023-04-15T20:43:10.452Z,2.83
2023-04-15T20:45:37.360Z,2.88
2023-04-15T20:48:04.931Z,2.85
2023-04-15T20:50:31.812Z,2.50
2023-04-15T20:52:58.609Z,2.30
2023-04-15T20:55:25.540Z,2.17
2023-04-15T20:57:52.331Z,2.60
2023-04-15T21:00:19.037Z,2.40
2023-04-15T21:02:45.881Z,2.22
2023-04-15T21:05:12.795Z,2.30
2023-04-15T21:07:40.924Z,2.83
2023-04-15T21:10:07.863Z,2.30
2023-04-15T21:12:34.530Z,2.80
2023-04-15T21:15:01.702Z,2.10
2023-04-15T21:17:28.415Z,2.40
2023-04-15T21:19:55.206Z,2.20
2023-04-15T21:22:21.913Z,2.58
2023-04-15T21:24:48.857Z,2.30
2023-04-15T21:27:15.710Z,2.17
2023-04-15T21:29:42.353Z,2.45
2023-04-15T21:32:09.138Z,2.80
2023-04-15T21:34:36.031Z,2.33
2023-04-15T21:37:03.066Z,2.45
2023-04-15T21:39:29.703Z,2.22
2023-04-15T21:41:57.787Z,2.50
2023-04-15T21:44:24.767Z,2.63
2023-04-15T21:46:51.944Z,2.53
2023-04-15T21:49:20.252Z,2.17
2023-04-15T21:51:47.860Z,2.78
2023-04-15T21:54:14.549Z,2.50
2023-04-15T21:56:42.406Z,2.70
2023-04-15T21:59:09.185Z,2.40
2023-04-15T22:01:36.176Z,2.88
2023-04-15T22:04:03.092Z,2.78
2023-04-15T22:06:29.794Z,2.70
2023-04-15T22:08:57.734Z,2.50
2023-04-15T22:11:28.368Z,2.60
2023-04-15T22:13:56.947Z,2.60
2023-04-15T22:16:25.646Z,2.63
2023-04-15T22:18:52.545Z,2.60
2023-04-15T22:21:19.273Z,2.67
2023-04-15T22:23:48.100Z,2.55
2023-04-15T22:26:14.744Z,2.67
2023-04-15T22:28:41.890Z,2.60
2023-04-15T22:31:08.742Z,2.90
2023-04-15T22:33:35.397Z,2.97
2023-04-15T22:36:01.998Z,2.80
2023-04-15T22:38:28.867Z,3.10
2023-04-15T22:40:55.525Z,3.20
2023-04-15T22:43:22.243Z,3.00
2023-04-15T22:45:53.045Z,3.17
2023-04-15T22:48:19.791Z,3.55
2023-04-15T22:50:46.598Z,3.83
2023-04-15T22:53:14.880Z,3.63
2023-04-15T22:55:46.471Z,4.32
2023-04-15T22:58:13.321Z,4.20
2023-04-15T23:00:39.918Z,3.85
2023-04-15T23:03:06.829Z,4.25
2023-04-15T23:05:34.050Z,4.18
2023-04-15T23:08:00.928Z,3.97
2023-04-15T23:10:27.945Z,4.18
2023-04-15T23:12:54.588Z,4.75
2023-04-15T23:15:21.300Z,4.40
2023-04-15T23:17:48.005Z,5.22
2023-04-15T23:20:16.124Z,4.60
2023-04-15T23:22:43.162Z,5.43
2023-04-15T23:25:10.358Z,5.13
2023-04-15T23:27:37.102Z,5.55
2023-04-15T23:30:04.189Z,6.10
2023-04-15T23:32:31.065Z,5.50
2023-04-15T23:34:57.750Z,6.05
2023-04-15T23:37:24.383Z,6.32
2023-04-15T23:39:51.051Z,6.50
2023-04-15T23:42:17.634Z,6.40
2023-04-15T23:44:44.866Z,6.80
2023-04-15T23:47:11.541Z,6.43
2023-04-15T23:49:40.743Z,7.03
2023-04-15T23:52:07.808Z,6.82
2023-04-15T23:54:34.404Z,7.32
2023-04-15T23:57:01.238Z,7.05
2023-04-15T23:59:27.953Z,7.28
